createdAt,value
2019-04-25T00:01:47.389Z,5.37
2019-04-25T00:04:15.532Z,5.60
2019-04-25T00:06:42.892Z,5.70
2019-04-25T00:09:12.755Z,5.93
2019-04-25T00:11:39.556Z,5.53
2019-04-25T00:14:06.626Z,5.43
2019-04-25T00:16:35.144Z,5.07
2019-04-25T00:19:02.020Z,4.97
2019-04-25T00:21:32.058Z,5.50
2019-04-25T00:24:02.633Z,6.13
2019-04-25T00:26:31.687Z,5.17
2019-04-25T00:28:58.355Z,5.83
2019-04-25T00:31:26.111Z,5.67
2019-04-25T00:33:53.941Z,5.60
2019-04-25T00:36:21.830Z,5.47
2019-04-25T00:38:49.266Z,6.03
2019-04-25T00:41:17.148Z,5.77
2019-04-25T00:43:44.098Z,5.63
2019-04-25T00:46:11.436Z,5.30
2019-04-25T00:48:38.290Z,4.63
2019-04-25T00:51:04.949Z,5.87
2019-04-25T00:53:32.406Z,5.23
2019-04-25T00:56:01.452Z,5.87
2019-04-25T00:58:31.510Z,4.70
2019-04-25T01:01:01.886Z,5.17
2019-04-25T01:03:31.703Z,4.70
2019-04-25T01:05:59.706Z,4.80
2019-04-25T01:08:26.711Z,5.10
2019-04-25T01:10:54.239Z,5.07
2019-04-25T01:13:22.321Z,5.20
2019-04-25T01:15:49.399Z,5.47
2019-04-25T01:18:16.040Z,4.90
2019-04-25T01:20:43.454Z,5.00
2019-04-25T01:23:11.595Z,4.73
2019-04-25T01:25:41.020Z,5.00
2019-04-25T01:28:06.935Z,5.40
2019-04-25T01:30:34.006Z,5.20
2019-04-25T01:33:01.100Z,5.37
2019-04-25T01:35:29.858Z,4.63
2019-04-25T01:37:58.744Z,4.60
2019-04-25T01:40:27.319Z,5.03
2019-04-25T01:42:55.932Z,6.33
2019-04-25T01:45:24.516Z,5.07
2019-04-25T01:47:52.573Z,4.63
2019-04-25T01:50:20.183Z,5.07
2019-04-25T01:52:46.770Z,5.87
2019-04-25T01:55:13.841Z,5.07
2019-04-25T01:57:40.645Z,5.33
2019-04-25T02:00:10.624Z,5.40
2019-04-25T02:02:37.518Z,5.30
2019-04-25T02:05:06.347Z,5.63
2019-04-25T02:07:33.425Z,5.83
2019-04-25T02:10:00.486Z,5.80
2019-04-25T02:12:29.145Z,5.33
2019-04-25T02:14:56.853Z,5.00
2019-04-25T02:17:24.230Z,6.20
2019-04-25T02:19:52.151Z,5.27
2019-04-25T02:22:19.315Z,5.60
2019-04-25T02:24:45.980Z,6.20
2019-04-25T02:27:13.523Z,6.23
2019-04-25T02:29:40.570Z,6.17
2019-04-25T02:32:09.134Z,5.77
2019-04-25T02:34:36.081Z,6.23
2019-04-25T02:37:08.667Z,5.73
2019-04-25T02:39:36.762Z,5.47
2019-04-25T02:42:04.009Z,6.47
2019-04-25T02:44:34.337Z,5.37
2019-04-25T02:47:02.194Z,5.37
2019-04-25T02:49:38.686Z,6.27
2019-04-25T02:52:02.611Z,5.77
2019-04-25T02:54:30.109Z,5.93
2019-04-25T02:56:57.495Z,5.60
2019-04-25T02:59:25.550Z,5.90
2019-04-25T03:01:54.119Z,6.10
2019-04-25T03:04:20.736Z,6.50
2019-04-25T03:06:47.665Z,5.83
2019-04-25T03:09:15.379Z,6.97
2019-04-25T03:11:45.098Z,6.33
2019-04-25T03:14:11.314Z,6.33
2019-04-25T03:16:38.289Z,6.40
2019-04-25T03:19:08.255Z,6.03
2019-04-25T03:21:37.650Z,6.13
2019-04-25T03:24:09.066Z,6.17
2019-04-25T03:26:40.347Z,5.67
2019-04-25T03:29:04.661Z,5.50
2019-04-25T03:31:31.452Z,6.07
2019-04-25T03:33:58.230Z,5.70
2019-04-25T03:36:24.907Z,5.70
2019-04-25T03:38:51.754Z,6.07
2019-04-25T03:41:18.433Z,6.17
2019-04-25T03:43:45.128Z,5.40
2019-04-25T03:46:14.243Z,6.30
2019-04-25T03:48:41.418Z,5.53
2019-04-25T03:51:08.342Z,6.20
2019-04-25T03:53:35.083Z,5.57
2019-04-25T03:56:02.821Z,5.43
2019-04-25T03:58:30.257Z,5.60
2019-04-25T04:00:58.554Z,5.00
2019-04-25T04:03:25.160Z,5.57
2019-04-25T04:05:51.835Z,5.07
2019-04-25T04:08:18.460Z,5.63
2019-04-25T04:10:48.260Z,6.03
2019-04-25T04:13:15.853Z,6.23
2019-04-25T04:15:43.366Z,5.80
2019-04-25T04:18:14.341Z,6.17
2019-04-25T04:20:43.569Z,5.97
2019-04-25T04:23:13.482Z,5.90
2019-04-25T04:25:41.330Z,5.63
2019-04-25T04:28:07.975Z,5.10
2019-04-25T04:30:34.774Z,5.97
2019-04-25T04:33:03.635Z,5.37
2019-04-25T04:35:30.493Z,5.00
2019-04-25T04:37:57.262Z,6.23
2019-04-25T04:40:24.374Z,5.30
2019-04-25T04:42:51.294Z,5.43
2019-04-25T04:45:18.319Z,5.10
2019-04-25T04:47:45.407Z,5.60
2019-04-25T04:50:14.191Z,5.17
2019-04-25T04:52:40.979Z,4.90
2019-04-25T04:55:10.011Z,6.10
2019-04-25T04:57:37.794Z,5.13
2019-04-25T05:00:06.741Z,5.00
2019-04-25T05:02:35.238Z,5.40
2019-04-25T05:05:04.110Z,4.87
2019-04-25T05:07:34.277Z,4.73
2019-04-25T05:10:00.907Z,5.77
2019-04-25T05:12:27.474Z,4.97
2019-04-25T05:14:54.052Z,5.27
2019-04-25T05:17:20.604Z,5.63
2019-04-25T05:19:47.193Z,5.43
2019-04-25T05:22:14.813Z,4.73
2019-04-25T05:24:43.841Z,5.33
2019-04-25T05:27:10.743Z,5.77
2019-04-25T05:29:37.348Z,5.27
2019-04-25T05:32:04.303Z,5.50
2019-04-25T05:34:31.300Z,5.17
2019-04-25T05:36:57.946Z,5.13
2019-04-25T05:39:25.149Z,5.50
2019-04-25T05:41:54.007Z,5.57
2019-04-25T05:44:21.129Z,5.23
2019-04-25T05:46:47.723Z,5.00
2019-04-25T05:49:15.513Z,4.73
2019-04-25T05:51:43.737Z,5.47
2019-04-25T05:54:10.580Z,5.50
2019-04-25T05:56:37.283Z,4.50
2019-04-25T05:59:05.496Z,5.23
2019-04-25T06:01:34.306Z,5.53
2019-04-25T06:04:01.443Z,5.03
2019-04-25T06:06:28.270Z,5.07
2019-04-25T06:08:56.859Z,5.77
2019-04-25T06:11:26.137Z,5.73
2019-04-25T06:13:54.773Z,5.23
2019-04-25T06:16:25.598Z,5.90
2019-04-25T06:18:54.943Z,5.83
2019-04-25T06:21:23.269Z,5.53
2019-04-25T06:23:52.328Z,5.33
2019-04-25T06:26:33.117Z,4.50
2019-04-25T06:28:53.731Z,5.43
2019-04-25T06:31:16.557Z,5.50
2019-04-25T06:33:43.460Z,5.47
2019-04-25T06:36:10.274Z,5.37
2019-04-25T06:38:37.300Z,3.97
2019-04-25T06:41:03.959Z,5.10
2019-04-25T06:43:30.627Z,5.07
2019-04-25T06:45:59.101Z,5.47
2019-04-25T06:48:27.543Z,4.63
2019-04-25T06:50:54.330Z,5.57
2019-04-25T06:53:21.782Z,4.73
2019-04-25T06:55:49.451Z,5.53
2019-04-25T06:58:16.144Z,5.13
2019-04-25T07:00:57.616Z,5.47
2019-04-25T07:03:13.945Z,4.53
2019-04-25T07:05:41.378Z,4.37
2019-04-25T07:08:08.065Z,4.43
2019-04-25T07:10:35.010Z,4.73
2019-04-25T07:13:01.806Z,5.00
2019-04-25T07:15:28.496Z,4.60
2019-04-25T07:17:55.363Z,4.87
2019-04-25T07:20:24.879Z,5.10
2019-04-25T07:22:51.735Z,5.00
2019-04-25T07:25:21.963Z,4.43
2019-04-25T07:27:50.759Z,5.20
2019-04-25T07:30:27.227Z,5.00
2019-04-25T07:32:53.973Z,4.93
2019-04-25T07:35:20.797Z,4.60
2019-04-25T07:37:47.649Z,5.20
2019-04-25T07:40:15.518Z,4.77
2019-04-25T07:42:43.828Z,4.83
2019-04-25T07:45:14.193Z,4.67
2019-04-25T07:47:41.044Z,6.60
2019-04-25T07:50:09.117Z,5.93
2019-04-25T07:52:37.706Z,4.80
2019-04-25T07:55:05.703Z,5.67
2019-04-25T07:57:33.532Z,5.60
2019-04-25T08:00:01.212Z,5.50
2019-04-25T08:02:28.249Z,5.00
2019-04-25T08:04:55.905Z,5.53
2019-04-25T08:07:24.055Z,6.17
2019-04-25T08:09:51.235Z,5.03
2019-04-25T08:12:18.130Z,5.17
2019-04-25T08:14:46.591Z,5.20
2019-04-25T08:17:15.476Z,4.40
2019-04-25T08:19:44.215Z,5.17
2019-04-25T08:22:13.643Z,4.70
2019-04-25T08:24:41.305Z,4.90
2019-04-25T08:27:08.127Z,4.93
2019-04-25T08:29:37.995Z,4.33
2019-04-25T08:32:04.599Z,5.17
2019-04-25T08:34:32.432Z,5.77
2019-04-25T08:36:59.960Z,4.77
2019-04-25T08:39:27.667Z,5.00
2019-04-25T08:41:54.556Z,4.23
2019-04-25T08:44:21.513Z,5.20
2019-04-25T08:46:48.895Z,4.63
2019-04-25T08:49:17.491Z,5.27
2019-04-25T08:51:45.050Z,4.13
2019-04-25T08:54:13.773Z,4.47
2019-04-25T08:56:40.842Z,4.27
2019-04-25T08:59:09.967Z,4.80
2019-04-25T09:01:40.607Z,4.50
2019-04-25T09:04:09.221Z,4.20
2019-04-25T09:06:37.548Z,4.07
2019-04-25T09:09:07.225Z,4.97
2019-04-25T09:11:36.663Z,4.37
2019-04-25T09:14:03.722Z,4.53
2019-04-25T09:16:30.754Z,3.70
2019-04-25T09:18:57.377Z,4.13
2019-04-25T09:21:24.087Z,4.63
2019-04-25T09:23:50.930Z,4.70
2019-04-25T09:26:17.753Z,4.53
2019-04-25T09:28:46.314Z,4.13
2019-04-25T09:31:14.117Z,3.77
2019-04-25T09:33:41.230Z,4.20
2019-04-25T09:36:08.243Z,4.00
2019-04-25T09:38:35.744Z,4.13
2019-04-25T09:41:03.954Z,4.20
2019-04-25T09:43:30.923Z,4.50
2019-04-25T09:45:59.569Z,4.67
2019-04-25T09:48:28.079Z,4.93
2019-04-25T09:50:56.634Z,4.87
2019-04-25T09:53:23.905Z,4.23
2019-04-25T09:55:51.984Z,4.90
2019-04-25T09:58:20.480Z,4.30
2019-04-25T10:00:49.193Z,4.43
2019-04-25T10:03:15.845Z,4.83
2019-04-25T10:05:42.798Z,4.40
2019-04-25T10:08:09.551Z,3.90
2019-04-25T10:10:36.611Z,4.37
2019-04-25T10:13:06.272Z,4.63
2019-04-25T10:15:39.066Z,4.53
2019-04-25T10:18:06.118Z,4.87
2019-04-25T10:20:33.441Z,3.67
2019-04-25T10:23:00.563Z,4.60
2019-04-25T10:25:27.238Z,4.80
2019-04-25T10:27:54.044Z,4.47
2019-04-25T10:30:23.744Z,4.17
2019-04-25T10:32:49.562Z,4.63
2019-04-25T10:35:16.253Z,4.30
2019-04-25T10:37:44.828Z,4.57
2019-04-25T10:40:14.267Z,4.57
2019-04-25T10:42:41.222Z,4.63
2019-04-25T10:45:20.471Z,4.27
2019-04-25T10:47:37.913Z,4.23
2019-04-25T10:50:06.045Z,4.27
2019-04-25T10:52:33.749Z,4.53
2019-04-25T10:55:00.517Z,4.60
2019-04-25T10:57:28.496Z,4.53
2019-04-25T11:00:05.911Z,4.90
2019-04-25T11:02:24.390Z,4.17
2019-04-25T11:04:54.538Z,4.17
2019-04-25T11:07:23.382Z,4.83
2019-04-25T11:09:50.140Z,4.23
2019-04-25T11:12:17.894Z,5.33
2019-04-25T11:14:44.928Z,4.57
2019-04-25T11:17:13.204Z,4.73
2019-04-25T11:19:41.034Z,3.93
2019-04-25T11:22:08.343Z,5.20
2019-04-25T11:24:36.786Z,4.40
2019-04-25T11:27:04.298Z,4.97
2019-04-25T11:29:31.348Z,4.73
2019-04-25T11:31:58.572Z,4.57
2019-04-25T11:34:25.971Z,4.17
2019-04-25T11:36:52.632Z,4.40
2019-04-25T11:39:21.333Z,4.53
2019-04-25T11:41:49.463Z,4.00
2019-04-25T11:44:16.845Z,4.87
2019-04-25T11:46:45.324Z,4.50
2019-04-25T11:49:15.118Z,3.97
2019-04-25T11:51:42.744Z,4.17
2019-04-25T11:54:10.746Z,4.93
2019-04-25T11:56:37.429Z,4.90
2019-04-25T11:59:04.613Z,4.67
2019-04-25T12:01:31.600Z,4.67
2019-04-25T12:03:58.535Z,5.03
2019-04-25T12:06:25.317Z,4.97
2019-04-25T12:08:53.853Z,4.73
2019-04-25T12:11:20.585Z,4.77
2019-04-25T12:13:48.103Z,5.07
2019-04-25T12:16:17.183Z,4.70
2019-04-25T12:18:47.690Z,4.77
2019-04-25T12:21:13.587Z,6.37
2019-04-25T12:23:40.518Z,4.70
2019-04-25T12:26:07.317Z,5.03
2019-04-25T12:28:34.177Z,5.30
2019-04-25T12:31:00.966Z,4.87
2019-04-25T12:33:27.622Z,5.77
2019-04-25T12:35:55.328Z,4.73
2019-04-25T12:38:24.478Z,4.50
2019-04-25T12:40:52.634Z,4.97
2019-04-25T12:43:23.905Z,5.60
2019-04-25T12:45:52.964Z,5.57
2019-04-25T12:48:19.649Z,4.87
2019-04-25T12:50:47.908Z,4.40
2019-04-25T12:53:15.004Z,4.90
2019-04-25T12:55:41.857Z,6.03
2019-04-25T12:58:08.517Z,5.47
2019-04-25T13:00:47.278Z,4.97
2019-04-25T13:03:06.845Z,3.80
2019-04-25T13:05:34.167Z,5.10
2019-04-25T13:08:01.154Z,5.00
2019-04-25T13:10:27.927Z,5.07
2019-04-25T13:12:55.484Z,4.40
2019-04-25T13:15:23.475Z,5.20
2019-04-25T13:17:51.146Z,5.20
2019-04-25T13:20:18.187Z,5.43
2019-04-25T13:22:44.743Z,4.70
2019-04-25T13:25:14.813Z,5.43
2019-04-25T13:27:44.575Z,5.83
2019-04-25T13:30:14.018Z,4.47
2019-04-25T13:32:42.786Z,5.00
2019-04-25T13:35:13.518Z,4.63
2019-04-25T13:37:40.227Z,5.23
2019-04-25T13:40:07.130Z,5.27
2019-04-25T13:42:33.715Z,4.70
2019-04-25T13:45:00.627Z,4.50
2019-04-25T13:47:29.176Z,5.43
2019-04-25T13:49:56.125Z,5.03
2019-04-25T13:52:23.858Z,4.47
2019-04-25T13:54:51.243Z,5.47
2019-04-25T13:57:17.933Z,5.53
2019-04-25T13:59:45.859Z,4.80
2019-04-25T14:02:14.130Z,5.40
2019-04-25T14:04:40.914Z,4.57
2019-04-25T14:07:07.782Z,5.17
2019-04-25T14:09:34.912Z,5.57
2019-04-25T14:12:01.855Z,5.10
2019-04-25T14:14:28.544Z,4.53
2019-04-25T14:16:57.227Z,5.40
2019-04-25T14:19:25.773Z,4.40
2019-04-25T14:21:54.386Z,4.97
2019-04-25T14:24:22.915Z,4.93
2019-04-25T14:26:50.216Z,5.07
2019-04-25T14:29:17.104Z,5.53
2019-04-25T14:31:47.958Z,5.13
2019-04-25T14:34:13.278Z,4.73
2019-04-25T14:36:40.064Z,5.47
2019-04-25T14:39:07.081Z,4.77
2019-04-25T14:41:35.579Z,5.00
2019-04-25T14:44:02.253Z,4.53
2019-04-25T14:46:29.851Z,5.20
2019-04-25T14:48:56.647Z,4.37
2019-04-25T14:51:24.139Z,5.33
2019-04-25T14:53:52.359Z,4.87
2019-04-25T14:56:21.655Z,5.43
2019-04-25T14:58:49.179Z,4.83
2019-04-25T15:01:17.958Z,5.23
2019-04-25T15:03:44.879Z,5.50
2019-04-25T15:06:11.976Z,6.60
2019-04-25T15:08:38.833Z,5.57
2019-04-25T15:11:05.887Z,4.80
2019-04-25T15:13:32.658Z,5.10
2019-04-25T15:15:59.520Z,4.77
2019-04-25T15:18:26.727Z,4.67
2019-04-25T15:20:53.430Z,5.50
2019-04-25T15:23:24.139Z,5.27
2019-04-25T15:25:51.691Z,5.20
2019-04-25T15:28:18.622Z,5.10
2019-04-25T15:30:45.968Z,5.17
2019-04-25T15:33:12.809Z,5.23
2019-04-25T15:35:41.524Z,5.20
2019-04-25T15:38:10.171Z,4.73
2019-04-25T15:40:41.063Z,4.93
2019-04-25T15:43:09.966Z,5.07
2019-04-25T15:45:41.337Z,4.87
2019-04-25T15:48:08.133Z,4.90
2019-04-25T15:50:35.023Z,4.60
2019-04-25T15:53:01.787Z,4.70
2019-04-25T15:55:28.990Z,4.93
2019-04-25T15:57:56.101Z,4.87
2019-04-25T16:00:25.062Z,5.25
2019-04-25T16:02:51.841Z,5.33
2019-04-25T16:05:18.481Z,4.97
2019-04-25T16:07:45.394Z,5.23
2019-04-25T16:10:12.737Z,5.30
2019-04-25T16:12:42.721Z,5.37
2019-04-25T16:15:09.725Z,5.60
2019-04-25T16:17:37.190Z,5.70
2019-04-25T16:20:05.652Z,6.77
2019-04-25T16:22:32.493Z,5.30
2019-04-25T16:24:59.239Z,6.20
2019-04-25T16:27:25.971Z,5.07
2019-04-25T16:29:52.648Z,4.37
2019-04-25T16:32:22.552Z,5.27
2019-04-25T16:34:49.282Z,5.07
2019-04-25T16:37:16.184Z,5.57
2019-04-25T16:39:43.174Z,5.03
2019-04-25T16:42:10.062Z,4.90
2019-04-25T16:44:36.699Z,4.80
2019-04-25T16:47:03.791Z,4.43
2019-04-25T16:49:30.903Z,4.53
2019-04-25T16:51:57.641Z,4.90
2019-04-25T16:54:24.284Z,4.13
2019-04-25T16:56:51.250Z,5.03
2019-04-25T16:59:18.075Z,5.03
2019-04-25T17:01:45.031Z,4.93
2019-04-25T17:04:12.107Z,5.63
2019-04-25T17:06:38.995Z,4.70
2019-04-25T17:09:06.221Z,4.77
2019-04-25T17:11:35.890Z,5.17
2019-04-25T17:14:05.112Z,4.80
2019-04-25T17:16:32.562Z,5.30
2019-04-25T17:19:01.377Z,4.60
2019-04-25T17:21:28.088Z,4.73
2019-04-25T17:23:54.989Z,5.20
2019-04-25T17:26:22.066Z,6.27
2019-04-25T17:28:50.884Z,5.10
2019-04-25T17:31:19.931Z,4.97
2019-04-25T17:33:48.624Z,4.27
2019-04-25T17:36:17.438Z,5.00
2019-04-25T17:38:46.426Z,5.17
2019-04-25T17:41:13.014Z,4.67
2019-04-25T17:43:39.804Z,4.70
2019-04-25T17:46:10.878Z,5.23
2019-04-25T17:48:36.921Z,5.37
2019-04-25T17:51:06.073Z,5.00
2019-04-25T17:53:33.078Z,5.37
2019-04-25T17:56:00.072Z,5.30
2019-04-25T17:58:29.230Z,5.87
2019-04-25T18:00:56.218Z,6.13
2019-04-25T18:03:23.481Z,5.30
2019-04-25T18:05:51.667Z,5.10
2019-04-25T18:08:18.418Z,5.83
2019-04-25T18:10:45.043Z,6.23
2019-04-25T18:13:11.730Z,6.47
2019-04-25T18:15:40.290Z,6.10
2019-04-25T18:18:08.926Z,5.50
2019-04-25T18:20:38.848Z,5.93
2019-04-25T18:23:07.814Z,6.33
2019-04-25T18:25:36.938Z,6.60
2019-04-25T18:28:06.148Z,6.20
2019-04-25T18:30:32.950Z,8.40
2019-04-25T18:33:10.029Z,7.03
2019-04-25T18:35:31.962Z,7.30
2019-04-25T18:38:00.654Z,6.07
2019-04-25T18:40:29.216Z,6.80
2019-04-25T18:42:57.820Z,6.90
2019-04-25T18:45:26.461Z,6.70
2019-04-25T18:47:53.241Z,6.57
2019-04-25T18:50:21.941Z,8.03
2019-04-25T18:52:50.628Z,6.50
2019-04-25T18:55:19.230Z,7.57
2019-04-25T18:57:47.809Z,6.60
2019-04-25T19:00:16.705Z,8.10
2019-04-25T19:02:45.998Z,7.80
2019-04-25T19:05:14.827Z,7.33
2019-04-25T19:07:41.517Z,8.50
2019-04-25T19:10:10.164Z,7.70
2019-04-25T19:12:36.745Z,7.77
2019-04-25T19:15:05.070Z,8.40
2019-04-25T19:17:31.754Z,7.40
2019-04-25T19:19:58.422Z,9.67
2019-04-25T19:22:25.005Z,8.10
2019-04-25T19:24:52.192Z,8.10
2019-04-25T19:27:23.917Z,8.00
2019-04-25T19:29:47.435Z,8.10
2019-04-25T19:32:14.257Z,8.23
2019-04-25T19:34:41.270Z,9.03
2019-04-25T19:37:08.742Z,8.60
2019-04-25T19:39:37.457Z,8.43
2019-04-25T19:42:06.361Z,8.90
2019-04-25T19:44:33.028Z,8.60
2019-04-25T19:46:59.575Z,9.07
2019-04-25T19:49:26.179Z,9.17
2019-04-25T19:51:52.910Z,7.90
2019-04-25T19:54:19.886Z,8.63
2019-04-25T19:56:49.612Z,9.07
2019-04-25T19:59:16.516Z,8.57
2019-04-25T20:01:44.058Z,8.93
2019-04-25T20:04:12.842Z,9.37
2019-04-25T20:06:42.402Z,9.03
2019-04-25T20:09:12.961Z,7.83
2019-04-25T20:11:44.214Z,9.80
2019-04-25T20:14:11.383Z,8.70
2019-04-25T20:16:40.703Z,8.83
2019-04-25T20:19:09.458Z,8.73
2019-04-25T20:21:36.669Z,10.00
2019-04-25T20:24:03.890Z,9.33
2019-04-25T20:26:30.971Z,9.00
2019-04-25T20:28:57.552Z,8.20
2019-04-25T20:31:24.326Z,10.10
2019-04-25T20:34:03.278Z,8.83
2019-04-25T20:36:20.241Z,10.70
2019-04-25T20:38:47.240Z,10.00
2019-04-25T20:41:14.263Z,9.40
2019-04-25T20:43:41.465Z,9.53
2019-04-25T20:46:08.103Z,9.63
2019-04-25T20:48:34.698Z,8.93
2019-04-25T20:51:01.387Z,9.20
2019-04-25T20:53:27.984Z,9.90
2019-04-25T20:55:54.994Z,10.00
2019-04-25T20:58:22.099Z,9.20
2019-04-25T21:00:51.609Z,10.20
2019-04-25T21:03:18.585Z,9.73
2019-04-25T21:05:46.999Z,9.10
2019-04-25T21:08:13.562Z,9.53
2019-04-25T21:10:40.367Z,9.77
2019-04-25T21:13:08.979Z,9.13
2019-04-25T21:15:37.768Z,9.03
2019-04-25T21:18:06.379Z,9.90
2019-04-25T21:20:32.930Z,9.57
2019-04-25T21:22:59.630Z,9.93
2019-04-25T21:25:26.366Z,9.03
2019-04-25T21:27:53.036Z,8.77
2019-04-25T21:30:19.723Z,8.47
2019-04-25T21:32:48.314Z,8.90
2019-04-25T21:35:15.172Z,9.63
2019-04-25T21:37:43.664Z,10.20
2019-04-25T21:40:13.026Z,9.53
2019-04-25T21:42:41.722Z,9.13
2019-04-25T21:45:09.532Z,10.33
2019-04-25T21:47:36.282Z,9.73
2019-04-25T21:50:06.125Z,9.73
2019-04-25T21:52:33.259Z,9.70
2019-04-25T21:55:00.166Z,9.57
2019-04-25T21:57:27.088Z,10.20
2019-04-25T22:00:03.108Z,9.33
2019-04-25T22:02:23.271Z,9.50
2019-04-25T22:04:50.680Z,9.63
2019-04-25T22:07:17.862Z,9.17
2019-04-25T22:09:44.952Z,10.27
2019-04-25T22:12:13.910Z,9.47
2019-04-25T22:14:40.576Z,9.20
2019-04-25T22:17:07.612Z,8.60
2019-04-25T22:19:34.646Z,10.10
2019-04-25T22:22:02.703Z,9.10
2019-04-25T22:24:30.617Z,9.00
2019-04-25T22:26:59.414Z,9.17
2019-04-25T22:29:26.745Z,9.67
2019-04-25T22:34:52.009Z,9.53
2019-04-25T22:37:14.271Z,9.43
2019-04-25T22:39:41.251Z,9.33
2019-04-25T22:42:08.030Z,9.73
2019-04-25T22:44:35.029Z,9.60
2019-04-25T22:47:04.258Z,10.57
2019-04-25T22:49:31.018Z,10.07
2019-04-25T22:51:57.669Z,10.03
2019-04-25T22:54:25.930Z,9.93
2019-04-25T22:56:52.630Z,9.63
2019-04-25T22:59:19.648Z,8.73
2019-04-25T23:01:48.394Z,9.50
2019-04-25T23:04:17.037Z,9.00
2019-04-25T23:06:44.214Z,9.63
2019-04-25T23:09:12.085Z,9.57
2019-04-25T23:11:40.282Z,8.90
2019-04-25T23:14:07.221Z,9.00
2019-04-25T23:16:33.881Z,9.80
2019-04-25T23:19:00.452Z,9.37
2019-04-25T23:21:27.103Z,9.80
2019-04-25T23:23:54.004Z,10.60
2019-04-25T23:26:22.649Z,9.60
2019-04-25T23:28:51.700Z,8.90
2019-04-25T23:31:20.210Z,10.67
2019-04-25T23:33:47.418Z,9.07
2019-04-25T23:36:15.392Z,9.33
2019-04-25T23:38:42.317Z,9.27
2019-04-25T23:41:09.389Z,9.00
2019-04-25T23:43:36.228Z,9.37
2019-04-25T23:46:03.022Z,9.90
2019-04-25T23:48:30.352Z,9.27
2019-04-25T23:50:57.157Z,9.77
2019-04-25T23:53:23.709Z,9.77
2019-04-25T23:55:50.574Z,8.93
2019-04-25T23:58:18.003Z,9.87
